sensor_id;sensor_type;location;lat;lon;timestamp;P1;durP1;ratioP1;P2;durP2;ratioP2
10174;SDS011;18221;38.704;0.152;2022-07-29T00:23:54;14.23;;;10.52;;
10174;SDS011;18221;38.704;0.152;2022-07-29T00:26:22;12.20;;;10.18;;
10174;SDS011;18221;38.704;0.152;2022-07-29T00:28:53;11.90;;;10.60;;
10174;SDS011;18221;38.704;0.152;2022-07-29T00:31:20;14.68;;;11.07;;
10174;SDS011;18221;38.704;0.152;2022-07-29T00:33:48;11.90;;;10.80;;
10174;SDS011;18221;38.704;0.152;2022-07-29T00:36:16;12.75;;;11.50;;
10174;SDS011;18221;38.704;0.152;2022-07-29T00:38:43;12.25;;;11.00;;
10174;SDS011;18221;38.704;0.152;2022-07-29T00:41:12;11.57;;;10.43;;
10174;SDS011;18221;38.704;0.152;2022-07-29T00:43:41;14.27;;;11.20;;
10174;SDS011;18221;38.704;0.152;2022-07-29T00:46:09;12.63;;;11.40;;
10174;SDS011;18221;38.704;0.152;2022-07-29T00:48:37;12.30;;;11.13;;
10174;SDS011;18221;38.704;0.152;2022-07-29T00:51:05;12.32;;;11.10;;
10174;SDS011;18221;38.704;0.152;2022-07-29T00:53:35;14.82;;;11.27;;
10174;SDS011;18221;38.704;0.152;2022-07-29T00:56:03;14.68;;;11.68;;
10174;SDS011;18221;38.704;0.152;2022-07-29T00:58:33;13.25;;;11.88;;
10174;SDS011;18221;38.704;0.152;2022-07-29T01:01:01;17.00;;;11.80;;
10174;SDS011;18221;38.704;0.152;2022-07-29T01:03:29;15.07;;;11.65;;
10174;SDS011;18221;38.704;0.152;2022-07-29T01:05:57;14.05;;;12.02;;
10174;SDS011;18221;38.704;0.152;2022-07-29T01:08:26;15.03;;;12.23;;
10174;SDS011;18221;38.704;0.152;2022-07-29T01:10:54;13.18;;;11.85;;
10174;SDS011;18221;38.704;0.152;2022-07-29T01:13:22;14.20;;;12.80;;
10174;SDS011;18221;38.704;0.152;2022-07-29T01:15:54;13.70;;;12.40;;
10174;SDS011;18221;38.704;0.152;2022-07-29T01:18:30;15.87;;;12.87;;
10174;SDS011;18221;38.704;0.152;2022-07-29T01:21:15;14.20;;;12.90;;
10174;SDS011;18221;38.704;0.152;2022-07-29T01:27:32;15.52;;;13.48;;
10174;SDS011;18221;38.704;0.152;2022-07-29T01:30:19;14.67;;;12.80;;
10174;SDS011;18221;38.704;0.152;2022-07-29T01:32:53;14.37;;;11.73;;
10174;SDS011;18221;38.704;0.152;2022-07-29T01:35:28;19.48;;;12.07;;
10174;SDS011;18221;38.704;0.152;2022-07-29T01:38:06;14.57;;;12.30;;
10174;SDS011;18221;38.704;0.152;2022-07-29T01:40:44;12.75;;;11.32;;
10174;SDS011;18221;38.704;0.152;2022-07-29T01:43:20;16.02;;;11.50;;
10174;SDS011;18221;38.704;0.152;2022-07-29T01:46:00;16.80;;;11.65;;
10174;SDS011;18221;38.704;0.152;2022-07-29T01:48:37;17.58;;;12.02;;
10174;SDS011;18221;38.704;0.152;2022-07-29T01:51:11;14.82;;;10.40;;
10174;SDS011;18221;38.704;0.152;2022-07-29T01:53:47;15.82;;;11.10;;
10174;SDS011;18221;38.704;0.152;2022-07-29T01:56:26;14.48;;;10.40;;
10174;SDS011;18221;38.704;0.152;2022-07-29T01:58:58;18.17;;;10.50;;
10174;SDS011;18221;38.704;0.152;2022-07-29T02:01:31;17.25;;;10.32;;
10174;SDS011;18221;38.704;0.152;2022-07-29T02:04:01;16.90;;;10.98;;
10174;SDS011;18221;38.704;0.152;2022-07-29T02:06:33;12.55;;;10.75;;
10174;SDS011;18221;38.704;0.152;2022-07-29T02:09:04;17.52;;;10.80;;
10174;SDS011;18221;38.704;0.152;2022-07-29T02:11:35;14.00;;;10.00;;
10174;SDS011;18221;38.704;0.152;2022-07-29T02:14:05;11.77;;;9.73;;
10174;SDS011;18221;38.704;0.152;2022-07-29T02:16:39;12.13;;;10.20;;
10174;SDS011;18221;38.704;0.152;2022-07-29T02:19:10;15.40;;;10.75;;
10174;SDS011;18221;38.704;0.152;2022-07-29T02:21:42;12.70;;;10.52;;
10174;SDS011;18221;38.704;0.152;2022-07-29T02:24:12;14.80;;;10.82;;
10174;SDS011;18221;38.704;0.152;2022-07-29T02:26:42;12.52;;;10.32;;
10174;SDS011;18221;38.704;0.152;2022-07-29T02:29:12;12.23;;;10.90;;
10174;SDS011;18221;38.704;0.152;2022-07-29T02:31:44;13.23;;;10.13;;
10174;SDS011;18221;38.704;0.152;2022-07-29T02:34:15;10.55;;;9.45;;
10174;SDS011;18221;38.704;0.152;2022-07-29T02:36:46;12.10;;;9.55;;
10174;SDS011;18221;38.704;0.152;2022-07-29T02:39:16;12.00;;;9.23;;
10174;SDS011;18221;38.704;0.152;2022-07-29T02:41:46;14.52;;;9.13;;
10174;SDS011;18221;38.704;0.152;2022-07-29T02:44:18;13.52;;;9.15;;
10174;SDS011;18221;38.704;0.152;2022-07-29T02:46:52;12.68;;;9.20;;
10174;SDS011;18221;38.704;0.152;2022-07-29T02:49:34;16.10;;;9.35;;
10174;SDS011;18221;38.704;0.152;2022-07-29T02:52:06;9.27;;;8.25;;
10174;SDS011;18221;38.704;0.152;2022-07-29T02:54:44;15.20;;;8.82;;
10174;SDS011;18221;38.704;0.152;2022-07-29T02:57:21;12.57;;;8.32;;
10174;SDS011;18221;38.704;0.152;2022-07-29T03:00:00;11.93;;;8.15;;
10174;SDS011;18221;38.704;0.152;2022-07-29T03:02:35;9.75;;;8.30;;
10174;SDS011;18221;38.704;0.152;2022-07-29T03:05:09;13.27;;;8.55;;
10174;SDS011;18221;38.704;0.152;2022-07-29T03:07:49;12.75;;;8.73;;
10174;SDS011;18221;38.704;0.152;2022-07-29T03:10:23;11.50;;;8.52;;
10174;SDS011;18221;38.704;0.152;2022-07-29T03:12:54;13.55;;;8.48;;
10174;SDS011;18221;38.704;0.152;2022-07-29T03:15:24;11.57;;;8.55;;
10174;SDS011;18221;38.704;0.152;2022-07-29T03:17:55;14.00;;;8.95;;
10174;SDS011;18221;38.704;0.152;2022-07-29T03:20:24;11.10;;;8.55;;
10174;SDS011;18221;38.704;0.152;2022-07-29T03:22:53;11.73;;;9.00;;
10174;SDS011;18221;38.704;0.152;2022-07-29T03:25:21;11.90;;;8.52;;
10174;SDS011;18221;38.704;0.152;2022-07-29T03:27:48;13.50;;;8.85;;
10174;SDS011;18221;38.704;0.152;2022-07-29T03:30:16;12.20;;;8.57;;
10174;SDS011;18221;38.704;0.152;2022-07-29T03:32:45;13.15;;;8.32;;
10174;SDS011;18221;38.704;0.152;2022-07-29T03:35:14;14.15;;;8.32;;
10174;SDS011;18221;38.704;0.152;2022-07-29T03:37:42;11.70;;;8.45;;
10174;SDS011;18221;38.704;0.152;2022-07-29T03:40:11;11.43;;;8.35;;
10174;SDS011;18221;38.704;0.152;2022-07-29T03:42:48;11.35;;;8.27;;
10174;SDS011;18221;38.704;0.152;2022-07-29T03:45:20;11.57;;;7.97;;
10174;SDS011;18221;38.704;0.152;2022-07-29T03:47:52;11.73;;;7.88;;
10174;SDS011;18221;38.704;0.152;2022-07-29T03:50:27;13.00;;;8.75;;
10174;SDS011;18221;38.704;0.152;2022-07-29T03:52:57;10.90;;;8.15;;
10174;SDS011;18221;38.704;0.152;2022-07-29T03:55:26;14.80;;;8.52;;
10174;SDS011;18221;38.704;0.152;2022-07-29T03:57:58;14.25;;;8.85;;
10174;SDS011;18221;38.704;0.152;2022-07-29T04:00:28;14.40;;;9.18;;
10174;SDS011;18221;38.704;0.152;2022-07-29T04:02:58;13.13;;;8.77;;
10174;SDS011;18221;38.704;0.152;2022-07-29T04:05:28;12.15;;;9.30;;
10174;SDS011;18221;38.704;0.152;2022-07-29T04:07:56;12.77;;;8.63;;
10174;SDS011;18221;38.704;0.152;2022-07-29T04:10:24;12.55;;;8.10;;
10174;SDS011;18221;38.704;0.152;2022-07-29T04:12:52;12.40;;;9.07;;
10174;SDS011;18221;38.704;0.152;2022-07-29T04:15:20;12.45;;;8.25;;
10174;SDS011;18221;38.704;0.152;2022-07-29T04:17:47;12.25;;;8.85;;
10174;SDS011;18221;38.704;0.152;2022-07-29T04:20:15;16.08;;;9.88;;
10174;SDS011;18221;38.704;0.152;2022-07-29T04:22:45;12.88;;;9.07;;
10174;SDS011;18221;38.704;0.152;2022-07-29T04:25:13;14.95;;;9.10;;
10174;SDS011;18221;38.704;0.152;2022-07-29T04:27:40;11.65;;;8.93;;
10174;SDS011;18221;38.704;0.152;2022-07-29T04:30:22;11.60;;;8.63;;
10174;SDS011;18221;38.704;0.152;2022-07-29T04:32:50;11.20;;;8.95;;
10174;SDS011;18221;38.704;0.152;2022-07-29T04:35:18;12.73;;;8.75;;
10174;SDS011;18221;38.704;0.152;2022-07-29T04:37:48;12.32;;;8.93;;
10174;SDS011;18221;38.704;0.152;2022-07-29T04:40:16;11.68;;;8.57;;
10174;SDS011;18221;38.704;0.152;2022-07-29T04:42:44;11.43;;;8.48;;
10174;SDS011;18221;38.704;0.152;2022-07-29T04:45:12;12.48;;;8.68;;
10174;SDS011;18221;38.704;0.152;2022-07-29T04:47:40;13.43;;;8.90;;
10174;SDS011;18221;38.704;0.152;2022-07-29T04:50:08;16.95;;;8.75;;
10174;SDS011;18221;38.704;0.152;2022-07-29T04:52:36;13.48;;;8.93;;
10174;SDS011;18221;38.704;0.152;2022-07-29T04:55:06;11.05;;;7.38;;
10174;SDS011;18221;38.704;0.152;2022-07-29T04:57:35;12.88;;;7.72;;
10174;SDS011;18221;38.704;0.152;2022-07-29T05:00:04;16.30;;;8.05;;
10174;SDS011;18221;38.704;0.152;2022-07-29T05:02:33;14.98;;;8.00;;
10174;SDS011;18221;38.704;0.152;2022-07-29T05:05:01;10.23;;;7.65;;
10174;SDS011;18221;38.704;0.152;2022-07-29T05:07:30;11.60;;;7.93;;
10174;SDS011;18221;38.704;0.152;2022-07-29T05:09:58;11.55;;;7.45;;
10174;SDS011;18221;38.704;0.152;2022-07-29T05:12:27;15.93;;;8.90;;
10174;SDS011;18221;38.704;0.152;2022-07-29T05:14:55;16.77;;;8.35;;
10174;SDS011;18221;38.704;0.152;2022-07-29T05:17:23;9.25;;;7.72;;
10174;SDS011;18221;38.704;0.152;2022-07-29T05:19:51;12.05;;;8.43;;
10174;SDS011;18221;38.704;0.152;2022-07-29T05:22:19;13.63;;;7.78;;
10174;SDS011;18221;38.704;0.152;2022-07-29T05:24:48;15.13;;;7.85;;
10174;SDS011;18221;38.704;0.152;2022-07-29T05:27:16;11.98;;;6.60;;
10174;SDS011;18221;38.704;0.152;2022-07-29T05:29:45;9.82;;;6.90;;
10174;SDS011;18221;38.704;0.152;2022-07-29T05:32:13;11.65;;;7.97;;
10174;SDS011;18221;38.704;0.152;2022-07-29T05:34:41;12.27;;;7.15;;
10174;SDS011;18221;38.704;0.152;2022-07-29T05:37:09;12.70;;;7.22;;
10174;SDS011;18221;38.704;0.152;2022-07-29T05:39:38;13.70;;;7.72;;
10174;SDS011;18221;38.704;0.152;2022-07-29T05:42:07;12.93;;;8.07;;
10174;SDS011;18221;38.704;0.152;2022-07-29T05:44:36;9.75;;;7.20;;
10174;SDS011;18221;38.704;0.152;2022-07-29T05:47:06;10.57;;;7.70;;
10174;SDS011;18221;38.704;0.152;2022-07-29T05:49:33;13.52;;;7.70;;
10174;SDS011;18221;38.704;0.152;2022-07-29T05:52:01;10.75;;;7.10;;
10174;SDS011;18221;38.704;0.152;2022-07-29T05:54:30;15.30;;;7.18;;
10174;SDS011;18221;38.704;0.152;2022-07-29T05:56:58;10.85;;;6.95;;
10174;SDS011;18221;38.704;0.152;2022-07-29T05:59:26;9.82;;;7.07;;
10174;SDS011;18221;38.704;0.152;2022-07-29T06:01:54;12.27;;;6.97;;
10174;SDS011;18221;38.704;0.152;2022-07-29T06:04:23;10.20;;;6.68;;
10174;SDS011;18221;38.704;0.152;2022-07-29T06:06:51;13.48;;;6.78;;
10174;SDS011;18221;38.704;0.152;2022-07-29T06:09:19;14.98;;;7.70;;
10174;SDS011;18221;38.704;0.152;2022-07-29T06:11:48;14.80;;;6.85;;
10174;SDS011;18221;38.704;0.152;2022-07-29T06:14:15;15.10;;;7.22;;
10174;SDS011;18221;38.704;0.152;2022-07-29T06:16:44;13.45;;;7.53;;
10174;SDS011;18221;38.704;0.152;2022-07-29T06:19:12;11.32;;;7.60;;
10174;SDS011;18221;38.704;0.152;2022-07-29T06:21:42;13.90;;;6.80;;
10174;SDS011;18221;38.704;0.152;2022-07-29T06:24:11;11.30;;;6.57;;
10174;SDS011;18221;38.704;0.152;2022-07-29T06:26:40;13.55;;;7.38;;
10174;SDS011;18221;38.704;0.152;2022-07-29T06:29:09;9.43;;;6.65;;
10174;SDS011;18221;38.704;0.152;2022-07-29T06:31:37;10.48;;;7.03;;
10174;SDS011;18221;38.704;0.152;2022-07-29T06:34:05;10.70;;;6.57;;
10174;SDS011;18221;38.704;0.152;2022-07-29T06:36:34;15.55;;;7.53;;
10174;SDS011;18221;38.704;0.152;2022-07-29T06:39:05;13.07;;;7.00;;
10174;SDS011;18221;38.704;0.152;2022-07-29T06:41:34;11.32;;;6.60;;
10174;SDS011;18221;38.704;0.152;2022-07-29T06:44:02;14.93;;;6.88;;
10174;SDS011;18221;38.704;0.152;2022-07-29T06:46:31;11.60;;;6.68;;
10174;SDS011;18221;38.704;0.152;2022-07-29T06:49:00;13.18;;;6.85;;
10174;SDS011;18221;38.704;0.152;2022-07-29T06:51:28;13.48;;;7.05;;
10174;SDS011;18221;38.704;0.152;2022-07-29T06:53:56;17.23;;;6.40;;
10174;SDS011;18221;38.704;0.152;2022-07-29T06:56:25;11.68;;;6.63;;
10174;SDS011;18221;38.704;0.152;2022-07-29T06:58:53;10.85;;;6.55;;
10174;SDS011;18221;38.704;0.152;2022-07-29T07:01:21;14.38;;;6.40;;
10174;SDS011;18221;38.704;0.152;2022-07-29T07:03:49;11.02;;;5.82;;
10174;SDS011;18221;38.704;0.152;2022-07-29T07:06:17;12.23;;;6.70;;
10174;SDS011;18221;38.704;0.152;2022-07-29T07:08:45;12.65;;;6.13;;
10174;SDS011;18221;38.704;0.152;2022-07-29T07:11:13;10.77;;;6.10;;
10174;SDS011;18221;38.704;0.152;2022-07-29T07:13:43;10.50;;;5.82;;
10174;SDS011;18221;38.704;0.152;2022-07-29T07:16:12;13.75;;;6.03;;
10174;SDS011;18221;38.704;0.152;2022-07-29T07:18:39;13.45;;;6.18;;
10174;SDS011;18221;38.704;0.152;2022-07-29T07:21:07;15.45;;;6.43;;
10174;SDS011;18221;38.704;0.152;2022-07-29T07:23:35;12.30;;;6.60;;
10174;SDS011;18221;38.704;0.152;2022-07-29T07:26:03;11.77;;;6.13;;
10174;SDS011;18221;38.704;0.152;2022-07-29T07:28:32;11.25;;;6.15;;
10174;SDS011;18221;38.704;0.152;2022-07-29T07:31:01;11.82;;;5.75;;
10174;SDS011;18221;38.704;0.152;2022-07-29T07:33:29;9.60;;;5.80;;
10174;SDS011;18221;38.704;0.152;2022-07-29T07:35:57;9.68;;;5.72;;
10174;SDS011;18221;38.704;0.152;2022-07-29T07:38:25;8.88;;;5.60;;
10174;SDS011;18221;38.704;0.152;2022-07-29T07:40:53;10.52;;;5.50;;
10174;SDS011;18221;38.704;0.152;2022-07-29T07:43:21;12.13;;;6.13;;
10174;SDS011;18221;38.704;0.152;2022-07-29T07:45:48;12.60;;;6.30;;
10174;SDS011;18221;38.704;0.152;2022-07-29T07:48:18;10.77;;;6.03;;
10174;SDS011;18221;38.704;0.152;2022-07-29T07:50:46;42.58;;;8.10;;
10174;SDS011;18221;38.704;0.152;2022-07-29T07:53:15;21.73;;;6.25;;
10174;SDS011;18221;38.704;0.152;2022-07-29T07:55:43;17.40;;;5.93;;
10174;SDS011;18221;38.704;0.152;2022-07-29T07:58:11;55.95;;;9.80;;
10174;SDS011;18221;38.704;0.152;2022-07-29T08:00:39;35.90;;;7.78;;
10174;SDS011;18221;38.704;0.152;2022-07-29T08:03:07;16.40;;;6.60;;
10174;SDS011;18221;38.704;0.152;2022-07-29T08:05:39;17.73;;;6.35;;
10174;SDS011;18221;38.704;0.152;2022-07-29T08:08:07;15.95;;;5.53;;
10174;SDS011;18221;38.704;0.152;2022-07-29T08:10:35;13.75;;;5.68;;
10174;SDS011;18221;38.704;0.152;2022-07-29T08:13:23;12.32;;;5.18;;
10174;SDS011;18221;38.704;0.152;2022-07-29T08:15:55;15.32;;;5.80;;
10174;SDS011;18221;38.704;0.152;2022-07-29T08:18:28;6.22;;;4.32;;
10174;SDS011;18221;38.704;0.152;2022-07-29T08:20:58;8.77;;;4.55;;
10174;SDS011;18221;38.704;0.152;2022-07-29T08:23:26;9.75;;;5.18;;
10174;SDS011;18221;38.704;0.152;2022-07-29T08:26:00;9.00;;;4.43;;
10174;SDS011;18221;38.704;0.152;2022-07-29T08:28:28;12.68;;;4.20;;
10174;SDS011;18221;38.704;0.152;2022-07-29T08:30:56;9.85;;;4.25;;
10174;SDS011;18221;38.704;0.152;2022-07-29T08:33:23;9.18;;;4.35;;
10174;SDS011;18221;38.704;0.152;2022-07-29T08:35:51;9.88;;;3.80;;
10174;SDS011;18221;38.704;0.152;2022-07-29T08:38:21;7.43;;;3.88;;
10174;SDS011;18221;38.704;0.152;2022-07-29T08:40:49;7.60;;;3.38;;
10174;SDS011;18221;38.704;0.152;2022-07-29T08:43:17;9.75;;;3.92;;
10174;SDS011;18221;38.704;0.152;2022-07-29T08:45:46;11.52;;;4.00;;
10174;SDS011;18221;38.704;0.152;2022-07-29T08:48:16;5.18;;;3.53;;
10174;SDS011;18221;38.704;0.152;2022-07-29T08:50:50;6.18;;;4.15;;
10174;SDS011;18221;38.704;0.152;2022-07-29T08:53:23;5.88;;;3.65;;
10174;SDS011;18221;38.704;0.152;2022-07-29T08:55:55;11.80;;;4.50;;
10174;SDS011;18221;38.704;0.152;2022-07-29T08:58:24;10.73;;;4.53;;
10174;SDS011;18221;38.704;0.152;2022-07-29T09:00:57;8.55;;;4.30;;
10174;SDS011;18221;38.704;0.152;2022-07-29T09:03:30;12.25;;;4.70;;
10174;SDS011;18221;38.704;0.152;2022-07-29T09:06:03;13.40;;;4.53;;
10174;SDS011;18221;38.704;0.152;2022-07-29T09:08:33;13.13;;;4.50;;
10174;SDS011;18221;38.704;0.152;2022-07-29T09:11:01;14.20;;;5.22;;
10174;SDS011;18221;38.704;0.152;2022-07-29T09:13:30;8.10;;;4.25;;
10174;SDS011;18221;38.704;0.152;2022-07-29T09:15:58;10.77;;;4.57;;
10174;SDS011;18221;38.704;0.152;2022-07-29T09:18:37;8.70;;;4.60;;
10174;SDS011;18221;38.704;0.152;2022-07-29T09:21:07;8.63;;;4.80;;
10174;SDS011;18221;38.704;0.152;2022-07-29T09:24:03;9.50;;;4.55;;
10174;SDS011;18221;38.704;0.152;2022-07-29T09:26:34;10.13;;;5.13;;
10174;SDS011;18221;38.704;0.152;2022-07-29T09:29:07;8.48;;;4.65;;
10174;SDS011;18221;38.704;0.152;2022-07-29T09:31:37;7.22;;;4.43;;
10174;SDS011;18221;38.704;0.152;2022-07-29T09:34:07;8.23;;;4.43;;
10174;SDS011;18221;38.704;0.152;2022-07-29T09:36:39;11.35;;;4.35;;
10174;SDS011;18221;38.704;0.152;2022-07-29T09:39:09;10.38;;;4.45;;
10174;SDS011;18221;38.704;0.152;2022-07-29T09:41:45;12.00;;;4.55;;
10174;SDS011;18221;38.704;0.152;2022-07-29T09:44:14;9.40;;;4.78;;
10174;SDS011;18221;38.704;0.152;2022-07-29T09:46:56;10.88;;;4.45;;
10174;SDS011;18221;38.704;0.152;2022-07-29T09:49:30;12.85;;;4.65;;
10174;SDS011;18221;38.704;0.152;2022-07-29T09:52:00;10.38;;;4.57;;
10174;SDS011;18221;38.704;0.152;2022-07-29T09:54:34;10.93;;;4.07;;
10174;SDS011;18221;38.704;0.152;2022-07-29T09:57:04;11.57;;;4.50;;
10174;SDS011;18221;38.704;0.152;2022-07-29T09:59:34;11.95;;;4.47;;
10174;SDS011;18221;38.704;0.152;2022-07-29T10:02:10;12.90;;;4.55;;
10174;SDS011;18221;38.704;0.152;2022-07-29T10:04:39;8.93;;;3.97;;
10174;SDS011;18221;38.704;0.152;2022-07-29T10:07:09;9.88;;;4.15;;
10174;SDS011;18221;38.704;0.152;2022-07-29T10:09:38;7.60;;;4.32;;
10174;SDS011;18221;38.704;0.152;2022-07-29T10:12:19;11.52;;;4.20;;
10174;SDS011;18221;38.704;0.152;2022-07-29T10:14:47;9.70;;;3.70;;
10174;SDS011;18221;38.704;0.152;2022-07-29T10:17:17;6.85;;;3.47;;
10174;SDS011;18221;38.704;0.152;2022-07-29T10:19:45;8.68;;;3.72;;
10174;SDS011;18221;38.704;0.152;2022-07-29T10:22:15;11.02;;;4.03;;
10174;SDS011;18221;38.704;0.152;2022-07-29T10:24:44;9.20;;;3.83;;
10174;SDS011;18221;38.704;0.152;2022-07-29T10:27:13;9.48;;;3.60;;
10174;SDS011;18221;38.704;0.152;2022-07-29T10:29:41;11.88;;;4.43;;
10174;SDS011;18221;38.704;0.152;2022-07-29T10:32:25;8.48;;;3.72;;
10174;SDS011;18221;38.704;0.152;2022-07-29T10:35:15;6.78;;;3.63;;
10174;SDS011;18221;38.704;0.152;2022-07-29T10:38:13;9.55;;;3.60;;
10174;SDS011;18221;38.704;0.152;2022-07-29T10:41:18;10.18;;;3.92;;
10174;SDS011;18221;38.704;0.152;2022-07-29T10:44:22;9.30;;;3.58;;
10174;SDS011;18221;38.704;0.152;2022-07-29T10:46:52;10.07;;;3.78;;
10174;SDS011;18221;38.704;0.152;2022-07-29T10:49:22;7.45;;;3.83;;
10174;SDS011;18221;38.704;0.152;2022-07-29T10:51:55;10.73;;;3.45;;
10174;SDS011;18221;38.704;0.152;2022-07-29T10:54:46;9.23;;;3.70;;
10174;SDS011;18221;38.704;0.152;2022-07-29T10:57:20;9.88;;;3.55;;
10174;SDS011;18221;38.704;0.152;2022-07-29T11:02:56;10.00;;;4.05;;
10174;SDS011;18221;38.704;0.152;2022-07-29T11:05:25;7.78;;;3.65;;
10174;SDS011;18221;38.704;0.152;2022-07-29T11:10:51;7.82;;;3.45;;
10174;SDS011;18221;38.704;0.152;2022-07-29T11:13:52;10.88;;;3.90;;
10174;SDS011;18221;38.704;0.152;2022-07-29T11:16:21;8.48;;;3.40;;
10174;SDS011;18221;38.704;0.152;2022-07-29T11:21:47;8.60;;;3.63;;
10174;SDS011;18221;38.704;0.152;2022-07-29T11:24:17;9.60;;;3.80;;
10174;SDS011;18221;38.704;0.152;2022-07-29T11:29:49;8.00;;;3.40;;
10174;SDS011;18221;38.704;0.152;2022-07-29T11:32:22;8.45;;;3.10;;
10174;SDS011;18221;38.704;0.152;2022-07-29T11:37:42;11.82;;;3.70;;
10174;SDS011;18221;38.704;0.152;2022-07-29T11:40:14;6.63;;;3.15;;
10174;SDS011;18221;38.704;0.152;2022-07-29T11:42:45;9.77;;;3.22;;
10174;SDS011;18221;38.704;0.152;2022-07-29T11:48:15;7.68;;;3.47;;
10174;SDS011;18221;38.704;0.152;2022-07-29T11:50:45;7.78;;;3.35;;
10174;SDS011;18221;38.704;0.152;2022-07-29T11:53:14;6.57;;;3.08;;
10174;SDS011;18221;38.704;0.152;2022-07-29T11:55:42;6.80;;;3.60;;
10174;SDS011;18221;38.704;0.152;2022-07-29T11:58:10;11.48;;;3.80;;
10174;SDS011;18221;38.704;0.152;2022-07-29T12:00:38;13.88;;;3.75;;
10174;SDS011;18221;38.704;0.152;2022-07-29T12:03:09;10.55;;;3.33;;
10174;SDS011;18221;38.704;0.152;2022-07-29T12:05:40;10.95;;;3.50;;
10174;SDS011;18221;38.704;0.152;2022-07-29T12:08:12;5.45;;;3.28;;
10174;SDS011;18221;38.704;0.152;2022-07-29T12:10:44;10.15;;;3.60;;
10174;SDS011;18221;38.704;0.152;2022-07-29T12:13:13;9.18;;;3.40;;
10174;SDS011;18221;38.704;0.152;2022-07-29T12:15:53;7.95;;;3.63;;
10174;SDS011;18221;38.704;0.152;2022-07-29T12:18:23;7.53;;;3.40;;
10174;SDS011;18221;38.704;0.152;2022-07-29T12:20:56;9.85;;;4.03;;
10174;SDS011;18221;38.704;0.152;2022-07-29T12:23:28;6.90;;;3.42;;
10174;SDS011;18221;38.704;0.152;2022-07-29T12:25:57;8.35;;;3.60;;
10174;SDS011;18221;38.704;0.152;2022-07-29T12:28:26;6.53;;;3.53;;
10174;SDS011;18221;38.704;0.152;2022-07-29T12:30:56;9.65;;;3.65;;
10174;SDS011;18221;38.704;0.152;2022-07-29T12:33:25;6.97;;;3.58;;
10174;SDS011;18221;38.704;0.152;2022-07-29T12:35:56;9.60;;;3.40;;
10174;SDS011;18221;38.704;0.152;2022-07-29T12:38:26;9.88;;;3.80;;
10174;SDS011;18221;38.704;0.152;2022-07-29T12:40:55;7.70;;;3.80;;
10174;SDS011;18221;38.704;0.152;2022-07-29T12:43:23;9.73;;;3.35;;
10174;SDS011;18221;38.704;0.152;2022-07-29T12:45:52;10.85;;;3.85;;
10174;SDS011;18221;38.704;0.152;2022-07-29T12:48:33;10.40;;;4.07;;
10174;SDS011;18221;38.704;0.152;2022-07-29T12:51:02;7.80;;;3.75;;
10174;SDS011;18221;38.704;0.152;2022-07-29T12:53:32;11.32;;;4.10;;
10174;SDS011;18221;38.704;0.152;2022-07-29T12:56:01;8.90;;;3.67;;
10174;SDS011;18221;38.704;0.152;2022-07-29T12:58:31;12.40;;;4.50;;
10174;SDS011;18221;38.704;0.152;2022-07-29T13:01:04;8.27;;;3.42;;
10174;SDS011;18221;38.704;0.152;2022-07-29T13:03:49;7.85;;;3.75;;
10174;SDS011;18221;38.704;0.152;2022-07-29T13:06:33;8.52;;;4.03;;
10174;SDS011;18221;38.704;0.152;2022-07-29T13:09:05;12.07;;;4.50;;
10174;SDS011;18221;38.704;0.152;2022-07-29T13:11:37;9.90;;;3.75;;
10174;SDS011;18221;38.704;0.152;2022-07-29T13:14:07;9.38;;;4.25;;
10174;SDS011;18221;38.704;0.152;2022-07-29T13:16:59;11.45;;;3.97;;
10174;SDS011;18221;38.704;0.152;2022-07-29T13:19:33;11.70;;;3.88;;
10174;SDS011;18221;38.704;0.152;2022-07-29T13:22:05;16.65;;;4.72;;
10174;SDS011;18221;38.704;0.152;2022-07-29T13:24:34;17.08;;;4.93;;
10174;SDS011;18221;38.704;0.152;2022-07-29T13:27:14;8.52;;;4.22;;
10174;SDS011;18221;38.704;0.152;2022-07-29T13:29:42;10.93;;;4.22;;
10174;SDS011;18221;38.704;0.152;2022-07-29T13:32:13;8.02;;;3.88;;
10174;SDS011;18221;38.704;0.152;2022-07-29T13:34:41;13.13;;;4.18;;
10174;SDS011;18221;38.704;0.152;2022-07-29T13:37:09;9.15;;;3.92;;
10174;SDS011;18221;38.704;0.152;2022-07-29T13:39:37;15.00;;;4.60;;
10174;SDS011;18221;38.704;0.152;2022-07-29T13:42:06;9.57;;;4.15;;
10174;SDS011;18221;38.704;0.152;2022-07-29T13:44:34;9.43;;;3.78;;
10174;SDS011;18221;38.704;0.152;2022-07-29T13:47:02;12.43;;;4.13;;
10174;SDS011;18221;38.704;0.152;2022-07-29T13:49:31;8.30;;;4.20;;
10174;SDS011;18221;38.704;0.152;2022-07-29T13:51:59;9.50;;;4.22;;
10174;SDS011;18221;38.704;0.152;2022-07-29T13:54:28;11.80;;;3.70;;
10174;SDS011;18221;38.704;0.152;2022-07-29T13:56:56;10.73;;;4.18;;
10174;SDS011;18221;38.704;0.152;2022-07-29T13:59:24;7.65;;;4.20;;
10174;SDS011;18221;38.704;0.152;2022-07-29T14:01:52;12.15;;;4.03;;
10174;SDS011;18221;38.704;0.152;2022-07-29T14:04:20;12.65;;;4.35;;
10174;SDS011;18221;38.704;0.152;2022-07-29T14:06:49;13.73;;;4.40;;
10174;SDS011;18221;38.704;0.152;2022-07-29T14:09:18;7.15;;;3.85;;
10174;SDS011;18221;38.704;0.152;2022-07-29T14:11:47;11.43;;;4.93;;
10174;SDS011;18221;38.704;0.152;2022-07-29T14:14:16;10.77;;;3.78;;
10174;SDS011;18221;38.704;0.152;2022-07-29T14:16:44;9.52;;;3.83;;
10174;SDS011;18221;38.704;0.152;2022-07-29T14:19:12;12.32;;;4.40;;
10174;SDS011;18221;38.704;0.152;2022-07-29T14:21:40;8.95;;;3.80;;
10174;SDS011;18221;38.704;0.152;2022-07-29T14:24:10;11.93;;;4.10;;
10174;SDS011;18221;38.704;0.152;2022-07-29T14:26:38;10.80;;;3.92;;
10174;SDS011;18221;38.704;0.152;2022-07-29T14:29:06;7.97;;;3.72;;
10174;SDS011;18221;38.704;0.152;2022-07-29T14:31:34;11.10;;;3.92;;
10174;SDS011;18221;38.704;0.152;2022-07-29T14:34:02;8.20;;;3.72;;
10174;SDS011;18221;38.704;0.152;2022-07-29T14:36:30;8.40;;;3.83;;
10174;SDS011;18221;38.704;0.152;2022-07-29T14:38:58;9.60;;;4.10;;
10174;SDS011;18221;38.704;0.152;2022-07-29T14:41:27;10.68;;;3.75;;
10174;SDS011;18221;38.704;0.152;2022-07-29T14:43:55;9.63;;;4.10;;
10174;SDS011;18221;38.704;0.152;2022-07-29T14:46:25;13.65;;;4.22;;
10174;SDS011;18221;38.704;0.152;2022-07-29T14:48:54;10.35;;;4.30;;
10174;SDS011;18221;38.704;0.152;2022-07-29T14:51:22;9.95;;;4.20;;
10174;SDS011;18221;38.704;0.152;2022-07-29T14:53:49;9.60;;;4.20;;
10174;SDS011;18221;38.704;0.152;2022-07-29T14:56:17;13.32;;;4.57;;
10174;SDS011;18221;38.704;0.152;2022-07-29T14:58:47;9.20;;;4.03;;
10174;SDS011;18221;38.704;0.152;2022-07-29T15:01:15;11.63;;;4.55;;
10174;SDS011;18221;38.704;0.152;2022-07-29T15:03:43;9.75;;;4.40;;
10174;SDS011;18221;38.704;0.152;2022-07-29T15:06:11;11.57;;;4.85;;
10174;SDS011;18221;38.704;0.152;2022-07-29T15:08:39;10.95;;;4.18;;
10174;SDS011;18221;38.704;0.152;2022-07-29T15:11:07;10.02;;;4.30;;
10174;SDS011;18221;38.704;0.152;2022-07-29T15:13:35;11.57;;;4.30;;
10174;SDS011;18221;38.704;0.152;2022-07-29T15:16:05;11.00;;;4.30;;
10174;SDS011;18221;38.704;0.152;2022-07-29T15:18:34;10.90;;;4.78;;
10174;SDS011;18221;38.704;0.152;2022-07-29T15:21:03;11.05;;;3.85;;
10174;SDS011;18221;38.704;0.152;2022-07-29T15:23:32;10.18;;;4.00;;
10174;SDS011;18221;38.704;0.152;2022-07-29T15:26:01;13.75;;;4.68;;
10174;SDS011;18221;38.704;0.152;2022-07-29T15:28:30;10.85;;;4.07;;
10174;SDS011;18221;38.704;0.152;2022-07-29T15:30:58;11.00;;;3.92;;
10174;SDS011;18221;38.704;0.152;2022-07-29T15:33:27;9.05;;;4.10;;
10174;SDS011;18221;38.704;0.152;2022-07-29T15:35:55;9.23;;;4.15;;
10174;SDS011;18221;38.704;0.152;2022-07-29T15:38:23;8.82;;;3.90;;
10174;SDS011;18221;38.704;0.152;2022-07-29T15:40:51;10.15;;;3.95;;